sensor_id;sensor_type;location;lat;lon;timestamp;temperature;humidity
8332;DHT22;4203;48.144;14.118;2023-08-06T00:01:22;15.30;99.90
8332;DHT22;4203;48.144;14.118;2023-08-06T00:03:51;15.40;99.90
8332;DHT22;4203;48.144;14.118;2023-08-06T00:06:18;15.40;99.90
8332;DHT22;4203;48.144;14.118;2023-08-06T00:08:46;15.40;99.90
8332;DHT22;4203;48.144;14.118;2023-08-06T00:11:14;15.40;99.90
8332;DHT22;4203;48.144;14.118;2023-08-06T00:13:41;15.40;99.90
8332;DHT22;4203;48.144;14.118;2023-08-06T00:16:09;15.30;99.90
8332;DHT22;4203;48.144;14.118;2023-08-06T00:18:36;15.30;99.90
8332;DHT22;4203;48.144;14.118;2023-08-06T00:21:04;15.30;99.90
8332;DHT22;4203;48.144;14.118;2023-08-06T00:23:31;15.30;99.90
8332;DHT22;4203;48.144;14.118;2023-08-06T00:25:59;15.30;99.90
8332;DHT22;4203;48.144;14.118;2023-08-06T00:28:27;15.40;99.90
8332;DHT22;4203;48.144;14.118;2023-08-06T00:30:54;15.30;99.90
8332;DHT22;4203;48.144;14.118;2023-08-06T00:33:21;15.20;99.90
8332;DHT22;4203;48.144;14.118;2023-08-06T00:35:52;15.30;99.90
8332;DHT22;4203;48.144;14.118;2023-08-06T00:38:19;15.20;99.90
8332;DHT22;4203;48.144;14.118;2023-08-06T00:40:46;15.20;99.90
8332;DHT22;4203;48.144;14.118;2023-08-06T00:43:15;15.30;99.90
8332;DHT22;4203;48.144;14.118;2023-08-06T00:45:43;15.30;99.90
8332;DHT22;4203;48.144;14.118;2023-08-06T00:48:11;15.30;99.90
8332;DHT22;4203;48.144;14.118;2023-08-06T00:50:38;15.30;99.90
8332;DHT22;4203;48.144;14.118;2023-08-06T00:53:05;15.20;99.90
8332;DHT22;4203;48.144;14.118;2023-08-06T00:55:33;15.20;99.90
8332;DHT22;4203;48.144;14.118;2023-08-06T00:58:00;15.20;99.90
8332;DHT22;4203;48.144;14.118;2023-08-06T01:00:29;15.30;99.90
8332;DHT22;4203;48.144;14.118;2023-08-06T01:02:57;15.30;99.90
8332;DHT22;4203;48.144;14.118;2023-08-06T01:05:24;15.30;99.90
8332;DHT22;4203;48.144;14.118;2023-08-06T01:08:06;15.30;99.90
8332;DHT22;4203;48.144;14.118;2023-08-06T01:10:44;15.20;99.90
8332;DHT22;4203;48.144;14.118;2023-08-06T01:13:22;15.30;99.90
8332;DHT22;4203;48.144;14.118;2023-08-06T01:15:55;15.30;99.90
8332;DHT22;4203;48.144;14.118;2023-08-06T01:18:23;15.30;99.90
8332;DHT22;4203;48.144;14.118;2023-08-06T01:20:52;15.30;99.90
8332;DHT22;4203;48.144;14.118;2023-08-06T01:23:19;15.30;99.90
8332;DHT22;4203;48.144;14.118;2023-08-06T01:25:53;15.30;99.90
8332;DHT22;4203;48.144;14.118;2023-08-06T01:28:32;15.30;99.90
8332;DHT22;4203;48.144;14.118;2023-08-06T01:31:02;15.30;99.90
8332;DHT22;4203;48.144;14.118;2023-08-06T01:33:32;15.20;99.90
8332;DHT22;4203;48.144;14.118;2023-08-06T01:36:04;15.20;99.90
8332;DHT22;4203;48.144;14.118;2023-08-06T01:38:32;15.20;99.90
8332;DHT22;4203;48.144;14.118;2023-08-06T01:40:59;15.20;99.90
8332;DHT22;4203;48.144;14.118;2023-08-06T01:43:26;15.20;99.90
8332;DHT22;4203;48.144;14.118;2023-08-06T01:45:54;15.20;99.90
8332;DHT22;4203;48.144;14.118;2023-08-06T01:48:21;15.20;99.90
8332;DHT22;4203;48.144;14.118;2023-08-06T01:50:48;15.20;99.90
8332;DHT22;4203;48.144;14.118;2023-08-06T01:53:17;15.20;99.90
8332;DHT22;4203;48.144;14.118;2023-08-06T01:55:48;15.20;99.90
8332;DHT22;4203;48.144;14.118;2023-08-06T01:58:15;15.20;99.90
8332;DHT22;4203;48.144;14.118;2023-08-06T02:00:42;15.20;99.90
8332;DHT22;4203;48.144;14.118;2023-08-06T02:03:10;15.20;99.90
8332;DHT22;4203;48.144;14.118;2023-08-06T02:05:37;15.20;99.90
8332;DHT22;4203;48.144;14.118;2023-08-06T02:08:04;15.20;99.90
8332;DHT22;4203;48.144;14.118;2023-08-06T02:10:33;15.20;99.90
8332;DHT22;4203;48.144;14.118;2023-08-06T02:13:00;15.10;99.90
8332;DHT22;4203;48.144;14.118;2023-08-06T02:15:28;15.10;99.90
8332;DHT22;4203;48.144;14.118;2023-08-06T02:17:55;15.10;99.90
8332;DHT22;4203;48.144;14.118;2023-08-06T02:20:22;15.10;99.90
8332;DHT22;4203;48.144;14.118;2023-08-06T02:22:50;15.10;99.90
8332;DHT22;4203;48.144;14.118;2023-08-06T02:25:17;15.20;99.90
8332;DHT22;4203;48.144;14.118;2023-08-06T02:27:46;15.10;99.90
8332;DHT22;4203;48.144;14.118;2023-08-06T02:30:13;15.10;99.90
8332;DHT22;4203;48.144;14.118;2023-08-06T02:32:40;15.10;99.90
8332;DHT22;4203;48.144;14.118;2023-08-06T02:35:08;15.10;99.90
8332;DHT22;4203;48.144;14.118;2023-08-06T02:37:36;15.10;99.90
8332;DHT22;4203;48.144;14.118;2023-08-06T02:40:04;15.10;99.90
8332;DHT22;4203;48.144;14.118;2023-08-06T02:42:31;15.10;99.90
8332;DHT22;4203;48.144;14.118;2023-08-06T02:45:00;15.10;99.90
8332;DHT22;4203;48.144;14.118;2023-08-06T02:47:28;15.10;99.90
8332;DHT22;4203;48.144;14.118;2023-08-06T02:49:55;15.10;99.90
8332;DHT22;4203;48.144;14.118;2023-08-06T02:52:22;15.10;99.90
8332;DHT22;4203;48.144;14.118;2023-08-06T02:54:49;15.20;99.90
8332;DHT22;4203;48.144;14.118;2023-08-06T02:57:17;15.20;99.90
8332;DHT22;4203;48.144;14.118;2023-08-06T02:59:44;15.20;99.90
8332;DHT22;4203;48.144;14.118;2023-08-06T03:02:12;15.20;99.90
8332;DHT22;4203;48.144;14.118;2023-08-06T03:04:40;15.20;99.90
8332;DHT22;4203;48.144;14.118;2023-08-06T03:07:08;15.20;99.90
8332;DHT22;4203;48.144;14.118;2023-08-06T03:09:35;15.20;99.90
8332;DHT22;4203;48.144;14.118;2023-08-06T03:12:03;15.20;99.90
8332;DHT22;4203;48.144;14.118;2023-08-06T03:14:30;15.20;99.90
8332;DHT22;4203;48.144;14.118;2023-08-06T03:16:58;15.20;99.90
8332;DHT22;4203;48.144;14.118;2023-08-06T03:19:27;15.20;99.90
8332;DHT22;4203;48.144;14.118;2023-08-06T03:21:54;15.10;99.90
8332;DHT22;4203;48.144;14.118;2023-08-06T03:24:22;15.10;99.90
8332;DHT22;4203;48.144;14.118;2023-08-06T03:26:49;15.10;99.90
8332;DHT22;4203;48.144;14.118;2023-08-06T03:29:16;15.10;99.90
8332;DHT22;4203;48.144;14.118;2023-08-06T03:31:43;15.10;99.90
8332;DHT22;4203;48.144;14.118;2023-08-06T03:34:11;15.00;99.90
8332;DHT22;4203;48.144;14.118;2023-08-06T03:36:39;15.00;99.90
8332;DHT22;4203;48.144;14.118;2023-08-06T03:39:07;15.00;99.90
8332;DHT22;4203;48.144;14.118;2023-08-06T03:41:40;15.00;99.90
8332;DHT22;4203;48.144;14.118;2023-08-06T03:44:07;15.00;99.90
8332;DHT22;4203;48.144;14.118;2023-08-06T03:46:34;15.00;99.90
8332;DHT22;4203;48.144;14.118;2023-08-06T03:49:02;15.00;99.90
8332;DHT22;4203;48.144;14.118;2023-08-06T03:51:29;14.90;99.90
8332;DHT22;4203;48.144;14.118;2023-08-06T03:53:58;14.90;99.90
8332;DHT22;4203;48.144;14.118;2023-08-06T03:56:25;14.90;99.90
8332;DHT22;4203;48.144;14.118;2023-08-06T03:58:52;14.80;99.90
8332;DHT22;4203;48.144;14.118;2023-08-06T04:01:19;14.70;99.90
8332;DHT22;4203;48.144;14.118;2023-08-06T04:03:47;14.70;99.90
8332;DHT22;4203;48.144;14.118;2023-08-06T04:06:14;14.70;99.90
8332;DHT22;4203;48.144;14.118;2023-08-06T04:08:41;14.60;99.90
8332;DHT22;4203;48.144;14.118;2023-08-06T04:11:10;14.50;99.90
8332;DHT22;4203;48.144;14.118;2023-08-06T04:13:38;14.50;99.90
8332;DHT22;4203;48.144;14.118;2023-08-06T04:16:05;14.50;99.90
8332;DHT22;4203;48.144;14.118;2023-08-06T04:18:32;14.50;99.90
8332;DHT22;4203;48.144;14.118;2023-08-06T04:21:01;14.50;99.90
8332;DHT22;4203;48.144;14.118;2023-08-06T04:23:28;14.50;99.90
8332;DHT22;4203;48.144;14.118;2023-08-06T04:25:56;14.40;99.90
8332;DHT22;4203;48.144;14.118;2023-08-06T04:28:25;14.40;99.90
8332;DHT22;4203;48.144;14.118;2023-08-06T04:30:52;14.40;99.90
8332;DHT22;4203;48.144;14.118;2023-08-06T04:33:20;14.40;99.90
8332;DHT22;4203;48.144;14.118;2023-08-06T04:35:53;14.30;99.90
8332;DHT22;4203;48.144;14.118;2023-08-06T04:38:22;14.30;99.90
8332;DHT22;4203;48.144;14.118;2023-08-06T04:40:49;14.40;99.90
8332;DHT22;4203;48.144;14.118;2023-08-06T04:43:17;14.30;99.90
8332;DHT22;4203;48.144;14.118;2023-08-06T04:45:47;14.30;99.90
8332;DHT22;4203;48.144;14.118;2023-08-06T04:48:15;14.30;99.90
8332;DHT22;4203;48.144;14.118;2023-08-06T04:50:44;14.30;99.90
8332;DHT22;4203;48.144;14.118;2023-08-06T04:53:11;14.30;99.90
8332;DHT22;4203;48.144;14.118;2023-08-06T04:55:38;14.30;99.90
8332;DHT22;4203;48.144;14.118;2023-08-06T04:58:05;14.20;99.90
8332;DHT22;4203;48.144;14.118;2023-08-06T05:00:33;14.20;99.90
8332;DHT22;4203;48.144;14.118;2023-08-06T05:03:03;14.20;99.90
8332;DHT22;4203;48.144;14.118;2023-08-06T05:05:30;14.20;99.90
8332;DHT22;4203;48.144;14.118;2023-08-06T05:07:57;14.20;99.90
8332;DHT22;4203;48.144;14.118;2023-08-06T05:10:25;14.30;99.90
8332;DHT22;4203;48.144;14.118;2023-08-06T05:12:52;14.20;99.90
8332;DHT22;4203;48.144;14.118;2023-08-06T05:15:19;14.20;99.90
8332;DHT22;4203;48.144;14.118;2023-08-06T05:17:46;14.20;99.90
8332;DHT22;4203;48.144;14.118;2023-08-06T05:20:15;14.20;99.90
8332;DHT22;4203;48.144;14.118;2023-08-06T05:22:43;14.20;99.90
8332;DHT22;4203;48.144;14.118;2023-08-06T05:25:13;14.10;99.90
8332;DHT22;4203;48.144;14.118;2023-08-06T05:27:40;14.10;99.90
8332;DHT22;4203;48.144;14.118;2023-08-06T05:30:08;14.10;99.90
8332;DHT22;4203;48.144;14.118;2023-08-06T05:32:36;14.20;99.90
8332;DHT22;4203;48.144;14.118;2023-08-06T05:35:03;14.20;99.90
8332;DHT22;4203;48.144;14.118;2023-08-06T05:37:32;14.20;99.90
8332;DHT22;4203;48.144;14.118;2023-08-06T05:39:59;14.20;99.90
8332;DHT22;4203;48.144;14.118;2023-08-06T05:42:27;14.20;99.90
8332;DHT22;4203;48.144;14.118;2023-08-06T05:44:54;14.10;99.90
8332;DHT22;4203;48.144;14.118;2023-08-06T05:47:21;14.30;99.90
8332;DHT22;4203;48.144;14.118;2023-08-06T05:49:49;14.30;99.90
8332;DHT22;4203;48.144;14.118;2023-08-06T05:52:16;14.40;99.90
8332;DHT22;4203;48.144;14.118;2023-08-06T05:54:44;14.40;99.90
8332;DHT22;4203;48.144;14.118;2023-08-06T05:57:12;14.50;99.90
8332;DHT22;4203;48.144;14.118;2023-08-06T05:59:40;14.40;99.90
8332;DHT22;4203;48.144;14.118;2023-08-06T06:02:08;14.40;99.90
8332;DHT22;4203;48.144;14.118;2023-08-06T06:04:35;14.50;99.90
8332;DHT22;4203;48.144;14.118;2023-08-06T06:07:02;14.60;99.90
8332;DHT22;4203;48.144;14.118;2023-08-06T06:09:30;14.60;99.90
8332;DHT22;4203;48.144;14.118;2023-08-06T06:11:58;14.60;99.90
8332;DHT22;4203;48.144;14.118;2023-08-06T06:14:25;14.60;99.90
8332;DHT22;4203;48.144;14.118;2023-08-06T06:16:53;14.70;99.90
8332;DHT22;4203;48.144;14.118;2023-08-06T06:19:20;14.80;99.90
8332;DHT22;4203;48.144;14.118;2023-08-06T06:21:47;14.80;99.90
8332;DHT22;4203;48.144;14.118;2023-08-06T06:24:14;14.90;99.90
8332;DHT22;4203;48.144;14.118;2023-08-06T06:26:52;14.90;99.90
8332;DHT22;4203;48.144;14.118;2023-08-06T06:29:21;15.00;99.90
8332;DHT22;4203;48.144;14.118;2023-08-06T06:31:48;15.10;99.90
8332;DHT22;4203;48.144;14.118;2023-08-06T06:34:15;15.00;99.90
8332;DHT22;4203;48.144;14.118;2023-08-06T06:36:43;15.00;99.90
8332;DHT22;4203;48.144;14.118;2023-08-06T06:39:10;15.00;99.90
8332;DHT22;4203;48.144;14.118;2023-08-06T06:41:37;15.20;99.90
8332;DHT22;4203;48.144;14.118;2023-08-06T06:44:05;15.20;99.90
8332;DHT22;4203;48.144;14.118;2023-08-06T06:46:43;15.30;99.90
8332;DHT22;4203;48.144;14.118;2023-08-06T06:49:10;15.40;99.90
8332;DHT22;4203;48.144;14.118;2023-08-06T06:51:37;15.50;99.90
8332;DHT22;4203;48.144;14.118;2023-08-06T06:54:04;15.50;99.90
8332;DHT22;4203;48.144;14.118;2023-08-06T06:56:32;15.50;99.90
8332;DHT22;4203;48.144;14.118;2023-08-06T06:58:59;15.60;99.90
8332;DHT22;4203;48.144;14.118;2023-08-06T07:01:26;15.70;99.90
8332;DHT22;4203;48.144;14.118;2023-08-06T07:03:55;15.80;99.90
8332;DHT22;4203;48.144;14.118;2023-08-06T07:06:22;15.80;99.90
8332;DHT22;4203;48.144;14.118;2023-08-06T07:08:50;15.80;99.90
8332;DHT22;4203;48.144;14.118;2023-08-06T07:11:17;15.80;99.90
8332;DHT22;4203;48.144;14.118;2023-08-06T07:13:45;15.80;99.90
8332;DHT22;4203;48.144;14.118;2023-08-06T07:16:21;15.80;99.90
8332;DHT22;4203;48.144;14.118;2023-08-06T07:18:48;15.80;99.90
8332;DHT22;4203;48.144;14.118;2023-08-06T07:21:16;15.90;99.90
8332;DHT22;4203;48.144;14.118;2023-08-06T07:23:44;15.80;99.90
8332;DHT22;4203;48.144;14.118;2023-08-06T07:26:27;15.70;99.90
8332;DHT22;4203;48.144;14.118;2023-08-06T07:28:54;15.60;99.90
8332;DHT22;4203;48.144;14.118;2023-08-06T07:31:21;15.30;99.90
8332;DHT22;4203;48.144;14.118;2023-08-06T07:33:49;15.20;99.90
8332;DHT22;4203;48.144;14.118;2023-08-06T07:36:17;15.10;99.90
8332;DHT22;4203;48.144;14.118;2023-08-06T07:38:45;15.00;99.90
8332;DHT22;4203;48.144;14.118;2023-08-06T07:41:12;14.80;99.90
8332;DHT22;4203;48.144;14.118;2023-08-06T07:43:39;14.70;99.90
8332;DHT22;4203;48.144;14.118;2023-08-06T07:46:09;14.70;99.90
8332;DHT22;4203;48.144;14.118;2023-08-06T07:48:39;14.60;99.90
8332;DHT22;4203;48.144;14.118;2023-08-06T07:51:08;14.60;99.90
8332;DHT22;4203;48.144;14.118;2023-08-06T07:53:41;14.60;99.90
8332;DHT22;4203;48.144;14.118;2023-08-06T07:56:15;14.60;99.90
8332;DHT22;4203;48.144;14.118;2023-08-06T07:58:45;13.70;99.90
8332;DHT22;4203;48.144;14.118;2023-08-06T08:01:15;14.60;99.90
8332;DHT22;4203;48.144;14.118;2023-08-06T08:03:45;14.60;99.90
8332;DHT22;4203;48.144;14.118;2023-08-06T08:06:25;14.60;99.90
8332;DHT22;4203;48.144;14.118;2023-08-06T08:08:54;14.60;99.90
8332;DHT22;4203;48.144;14.118;2023-08-06T08:11:21;14.60;99.90
8332;DHT22;4203;48.144;14.118;2023-08-06T08:13:49;14.60;99.90
8332;DHT22;4203;48.144;14.118;2023-08-06T08:16:16;14.50;99.90
8332;DHT22;4203;48.144;14.118;2023-08-06T08:18:43;14.50;99.90
8332;DHT22;4203;48.144;14.118;2023-08-06T08:21:12;14.40;99.90
8332;DHT22;4203;48.144;14.118;2023-08-06T08:23:43;14.40;99.90
8332;DHT22;4203;48.144;14.118;2023-08-06T08:26:12;14.40;99.90
8332;DHT22;4203;48.144;14.118;2023-08-06T08:28:39;14.40;99.90
8332;DHT22;4203;48.144;14.118;2023-08-06T08:31:08;14.50;99.90
8332;DHT22;4203;48.144;14.118;2023-08-06T08:33:37;14.60;99.90
8332;DHT22;4203;48.144;14.118;2023-08-06T08:36:04;14.80;99.90
8332;DHT22;4203;48.144;14.118;2023-08-06T08:38:31;14.90;99.90
8332;DHT22;4203;48.144;14.118;2023-08-06T08:40:59;15.00;99.90
8332;DHT22;4203;48.144;14.118;2023-08-06T08:43:29;15.20;99.90
8332;DHT22;4203;48.144;14.118;2023-08-06T08:45:57;15.40;99.90
8332;DHT22;4203;48.144;14.118;2023-08-06T08:48:26;15.70;99.90
8332;DHT22;4203;48.144;14.118;2023-08-06T08:50:55;16.00;99.90
8332;DHT22;4203;48.144;14.118;2023-08-06T08:53:22;16.30;99.90
8332;DHT22;4203;48.144;14.118;2023-08-06T08:55:50;16.70;99.90
8332;DHT22;4203;48.144;14.118;2023-08-06T08:58:17;17.00;99.90
8332;DHT22;4203;48.144;14.118;2023-08-06T09:00:47;17.40;99.90
8332;DHT22;4203;48.144;14.118;2023-08-06T09:03:16;17.60;99.90
8332;DHT22;4203;48.144;14.118;2023-08-06T09:05:45;17.90;99.90
8332;DHT22;4203;48.144;14.118;2023-08-06T09:08:17;18.10;99.90
8332;DHT22;4203;48.144;14.118;2023-08-06T09:10:46;18.30;99.90
8332;DHT22;4203;48.144;14.118;2023-08-06T09:13:15;18.20;99.90
8332;DHT22;4203;48.144;14.118;2023-08-06T09:15:46;18.30;99.90
8332;DHT22;4203;48.144;14.118;2023-08-06T09:18:15;18.30;99.90
8332;DHT22;4203;48.144;14.118;2023-08-06T09:20:42;18.40;99.90
8332;DHT22;4203;48.144;14.118;2023-08-06T09:23:09;18.60;99.90
8332;DHT22;4203;48.144;14.118;2023-08-06T09:25:38;18.60;99.90
8332;DHT22;4203;48.144;14.118;2023-08-06T09:28:06;18.60;99.90
8332;DHT22;4203;48.144;14.118;2023-08-06T09:30:35;18.70;99.90
8332;DHT22;4203;48.144;14.118;2023-08-06T09:33:08;18.80;99.90
8332;DHT22;4203;48.144;14.118;2023-08-06T09:35:36;18.70;99.90
8332;DHT22;4203;48.144;14.118;2023-08-06T09:38:07;18.50;99.90
8332;DHT22;4203;48.144;14.118;2023-08-06T09:40:35;18.50;99.90
8332;DHT22;4203;48.144;14.118;2023-08-06T09:43:03;18.50;99.90
8332;DHT22;4203;48.144;14.118;2023-08-06T09:45:31;18.50;99.90
8332;DHT22;4203;48.144;14.118;2023-08-06T09:47:59;18.60;99.90
8332;DHT22;4203;48.144;14.118;2023-08-06T09:50:30;18.70;99.90
8332;DHT22;4203;48.144;14.118;2023-08-06T09:52:58;18.90;99.90
8332;DHT22;4203;48.144;14.118;2023-08-06T09:55:25;18.90;99.90
8332;DHT22;4203;48.144;14.118;2023-08-06T09:57:54;18.90;99.90
8332;DHT22;4203;48.144;14.118;2023-08-06T10:00:21;19.10;99.90
8332;DHT22;4203;48.144;14.118;2023-08-06T10:02:49;19.30;99.90
8332;DHT22;4203;48.144;14.118;2023-08-06T10:05:21;19.70;99.90
8332;DHT22;4203;48.144;14.118;2023-08-06T10:07:50;20.20;99.90
8332;DHT22;4203;48.144;14.118;2023-08-06T10:10:18;20.40;99.90
8332;DHT22;4203;48.144;14.118;2023-08-06T10:12:49;20.70;99.90
8332;DHT22;4203;48.144;14.118;2023-08-06T10:15:22;21.00;99.90
8332;DHT22;4203;48.144;14.118;2023-08-06T10:17:52;20.90;99.90
8332;DHT22;4203;48.144;14.118;2023-08-06T10:20:21;20.90;99.90
8332;DHT22;4203;48.144;14.118;2023-08-06T10:23:01;21.00;99.90
8332;DHT22;4203;48.144;14.118;2023-08-06T10:25:31;21.20;99.90
8332;DHT22;4203;48.144;14.118;2023-08-06T10:27:59;21.40;99.90
8332;DHT22;4203;48.144;14.118;2023-08-06T10:30:28;21.50;99.90
8332;DHT22;4203;48.144;14.118;2023-08-06T10:32:56;21.70;99.90
8332;DHT22;4203;48.144;14.118;2023-08-06T10:35:35;22.10;99.90
8332;DHT22;4203;48.144;14.118;2023-08-06T10:38:09;22.10;99.90
8332;DHT22;4203;48.144;14.118;2023-08-06T10:40:36;22.20;99.90
8332;DHT22;4203;48.144;14.118;2023-08-06T10:43:04;22.00;99.90
8332;DHT22;4203;48.144;14.118;2023-08-06T10:45:34;21.80;99.90
8332;DHT22;4203;48.144;14.118;2023-08-06T10:48:02;21.60;99.90
8332;DHT22;4203;48.144;14.118;2023-08-06T10:50:30;21.60;99.90
8332;DHT22;4203;48.144;14.118;2023-08-06T10:53:03;21.70;99.90
8332;DHT22;4203;48.144;14.118;2023-08-06T10:55:32;21.80;99.90
8332;DHT22;4203;48.144;14.118;2023-08-06T10:57:59;21.90;99.90
8332;DHT22;4203;48.144;14.118;2023-08-06T11:00:26;22.00;99.90
8332;DHT22;4203;48.144;14.118;2023-08-06T11:02:54;21.90;99.90
8332;DHT22;4203;48.144;14.118;2023-08-06T11:05:21;22.00;99.90
8332;DHT22;4203;48.144;14.118;2023-08-06T11:07:49;22.20;99.90
8332;DHT22;4203;48.144;14.118;2023-08-06T11:10:17;22.40;99.90
8332;DHT22;4203;48.144;14.118;2023-08-06T11:12:45;22.70;99.90
8332;DHT22;4203;48.144;14.118;2023-08-06T11:15:13;23.10;99.90
8332;DHT22;4203;48.144;14.118;2023-08-06T11:17:40;23.10;99.90
8332;DHT22;4203;48.144;14.118;2023-08-06T11:20:09;23.50;99.90
8332;DHT22;4203;48.144;14.118;2023-08-06T11:22:37;23.30;99.90
8332;DHT22;4203;48.144;14.118;2023-08-06T11:25:06;23.40;99.90
8332;DHT22;4203;48.144;14.118;2023-08-06T11:27:33;23.70;99.90
8332;DHT22;4203;48.144;14.118;2023-08-06T11:30:02;23.40;99.90
8332;DHT22;4203;48.144;14.118;2023-08-06T11:32:30;22.90;99.90
8332;DHT22;4203;48.144;14.118;2023-08-06T11:34:59;22.70;99.90
8332;DHT22;4203;48.144;14.118;2023-08-06T11:37:26;22.60;99.90
8332;DHT22;4203;48.144;14.118;2023-08-06T11:39:53;22.60;99.90
8332;DHT22;4203;48.144;14.118;2023-08-06T11:42:23;22.60;99.90
8332;DHT22;4203;48.144;14.118;2023-08-06T11:44:50;22.30;99.90
8332;DHT22;4203;48.144;14.118;2023-08-06T11:47:19;22.50;99.90
8332;DHT22;4203;48.144;14.118;2023-08-06T11:49:47;22.70;99.90
8332;DHT22;4203;48.144;14.118;2023-08-06T11:52:17;22.70;99.90
8332;DHT22;4203;48.144;14.118;2023-08-06T11:54:46;22.50;99.90
8332;DHT22;4203;48.144;14.118;2023-08-06T11:57:13;21.90;99.90
8332;DHT22;4203;48.144;14.118;2023-08-06T11:59:42;21.30;99.90
8332;DHT22;4203;48.144;14.118;2023-08-06T12:02:10;21.00;99.90
8332;DHT22;4203;48.144;14.118;2023-08-06T12:05:01;21.20;99.90
8332;DHT22;4203;48.144;14.118;2023-08-06T12:07:31;21.10;99.90
8332;DHT22;4203;48.144;14.118;2023-08-06T12:09:59;21.10;99.90
8332;DHT22;4203;48.144;14.118;2023-08-06T12:12:26;20.90;99.90
8332;DHT22;4203;48.144;14.118;2023-08-06T12:14:54;20.50;99.90
8332;DHT22;4203;48.144;14.118;2023-08-06T12:17:22;20.10;99.90
8332;DHT22;4203;48.144;14.118;2023-08-06T12:19:50;19.80;99.90
8332;DHT22;4203;48.144;14.118;2023-08-06T12:22:18;19.60;99.90
8332;DHT22;4203;48.144;14.118;2023-08-06T12:24:46;19.70;99.90
8332;DHT22;4203;48.144;14.118;2023-08-06T12:27:14;20.10;99.90
8332;DHT22;4203;48.144;14.118;2023-08-06T12:29:42;20.30;99.90
8332;DHT22;4203;48.144;14.118;2023-08-06T12:32:09;20.40;99.90
8332;DHT22;4203;48.144;14.118;2023-08-06T12:34:38;20.80;99.90
8332;DHT22;4203;48.144;14.118;2023-08-06T12:37:06;21.40;99.90
8332;DHT22;4203;48.144;14.118;2023-08-06T12:39:35;22.20;99.90
8332;DHT22;4203;48.144;14.118;2023-08-06T12:42:04;23.00;99.90
8332;DHT22;4203;48.144;14.118;2023-08-06T12:44:31;23.10;99.90
8332;DHT22;4203;48.144;14.118;2023-08-06T12:46:59;23.00;99.90
8332;DHT22;4203;48.144;14.118;2023-08-06T12:49:26;22.90;99.90
8332;DHT22;4203;48.144;14.118;2023-08-06T12:51:54;22.40;99.90
8332;DHT22;4203;48.144;14.118;2023-08-06T12:54:22;22.10;99.90
8332;DHT22;4203;48.144;14.118;2023-08-06T12:56:51;21.60;99.90
8332;DHT22;4203;48.144;14.118;2023-08-06T12:59:18;21.50;99.90
8332;DHT22;4203;48.144;14.118;2023-08-06T13:01:46;21.30;99.90
8332;DHT22;4203;48.144;14.118;2023-08-06T13:04:14;21.10;99.90
8332;DHT22;4203;48.144;14.118;2023-08-06T13:06:41;21.20;99.90
8332;DHT22;4203;48.144;14.118;2023-08-06T13:09:08;21.50;99.90
8332;DHT22;4203;48.144;14.118;2023-08-06T13:11:36;21.90;99.90
8332;DHT22;4203;48.144;14.118;2023-08-06T13:14:07;22.00;99.90
8332;DHT22;4203;48.144;14.118;2023-08-06T13:16:35;21.90;99.90
8332;DHT22;4203;48.144;14.118;2023-08-06T13:19:03;21.80;99.90
8332;DHT22;4203;48.144;14.118;2023-08-06T13:21:32;21.70;99.90
8332;DHT22;4203;48.144;14.118;2023-08-06T13:24:00;21.40;99.90
8332;DHT22;4203;48.144;14.118;2023-08-06T13:26:28;21.40;99.90
8332;DHT22;4203;48.144;14.118;2023-08-06T13:28:57;21.20;99.90
8332;DHT22;4203;48.144;14.118;2023-08-06T13:31:27;21.40;99.90
8332;DHT22;4203;48.144;14.118;2023-08-06T13:33:55;21.70;99.90
8332;DHT22;4203;48.144;14.118;2023-08-06T13:36:24;22.10;99.90
8332;DHT22;4203;48.144;14.118;2023-08-06T13:38:54;22.20;99.90
8332;DHT22;4203;48.144;14.118;2023-08-06T13:41:22;21.70;99.90
8332;DHT22;4203;48.144;14.118;2023-08-06T13:43:50;21.20;99.90
8332;DHT22;4203;48.144;14.118;2023-08-06T13:46:18;21.00;99.90
8332;DHT22;4203;48.144;14.118;2023-08-06T13:48:48;20.70;99.90
8332;DHT22;4203;48.144;14.118;2023-08-06T13:51:16;20.10;99.90
8332;DHT22;4203;48.144;14.118;2023-08-06T13:53:44;20.20;99.90
8332;DHT22;4203;48.144;14.118;2023-08-06T13:56:11;20.10;99.90
8332;DHT22;4203;48.144;14.118;2023-08-06T13:58:44;20.00;99.90
8332;DHT22;4203;48.144;14.118;2023-08-06T14:01:12;19.70;99.90
8332;DHT22;4203;48.144;14.118;2023-08-06T14:03:40;19.50;99.90
8332;DHT22;4203;48.144;14.118;2023-08-06T14:06:08;19.40;99.90
8332;DHT22;4203;48.144;14.118;2023-08-06T14:08:35;19.40;99.90
8332;DHT22;4203;48.144;14.118;2023-08-06T14:11:05;19.30;99.90
8332;DHT22;4203;48.144;14.118;2023-08-06T14:13:33;19.50;99.90
8332;DHT22;4203;48.144;14.118;2023-08-06T14:16:01;19.30;99.90
8332;DHT22;4203;48.144;14.118;2023-08-06T14:18:28;19.20;99.90
8332;DHT22;4203;48.144;14.118;2023-08-06T14:20:55;18.80;99.90
8332;DHT22;4203;48.144;14.118;2023-08-06T14:23:24;18.20;99.90
8332;DHT22;4203;48.144;14.118;2023-08-06T14:25:51;17.60;99.90
8332;DHT22;4203;48.144;14.118;2023-08-06T14:28:18;17.20;99.90
8332;DHT22;4203;48.144;14.118;2023-08-06T14:30:46;16.90;99.90
8332;DHT22;4203;48.144;14.118;2023-08-06T14:33:13;16.70;99.90
8332;DHT22;4203;48.144;14.118;2023-08-06T14:35:40;16.60;99.90
8332;DHT22;4203;48.144;14.118;2023-08-06T14:38:07;16.80;99.90
8332;DHT22;4203;48.144;14.118;2023-08-06T14:40:36;17.30;99.90
8332;DHT22;4203;48.144;14.118;2023-08-06T14:43:04;17.70;99.90
8332;DHT22;4203;48.144;14.118;2023-08-06T14:45:32;17.90;99.90
8332;DHT22;4203;48.144;14.118;2023-08-06T14:47:59;17.90;99.90
8332;DHT22;4203;48.144;14.118;2023-08-06T14:50:26;18.00;99.90
8332;DHT22;4203;48.144;14.118;2023-08-06T14:52:56;18.20;99.90
8332;DHT22;4203;48.144;14.118;2023-08-06T14:55:26;18.40;99.90
8332;DHT22;4203;48.144;14.118;2023-08-06T14:57:55;18.50;99.90
8332;DHT22;4203;48.144;14.118;2023-08-06T15:00:22;18.60;99.90
8332;DHT22;4203;48.144;14.118;2023-08-06T15:02:49;18.70;99.90
8332;DHT22;4203;48.144;14.118;2023-08-06T15:05:16;18.60;99.90
8332;DHT22;4203;48.144;14.118;2023-08-06T15:07:44;18.60;99.90
8332;DHT22;4203;48.144;14.118;2023-08-06T15:10:11;18.60;99.90
8332;DHT22;4203;48.144;14.118;2023-08-06T15:12:38;18.40;99.90
8332;DHT22;4203;48.144;14.118;2023-08-06T15:15:08;18.40;99.90
8332;DHT22;4203;48.144;14.118;2023-08-06T15:17:36;18.30;99.90
8332;DHT22;4203;48.144;14.118;2023-08-06T15:20:04;18.30;99.90
8332;DHT22;4203;48.144;14.118;2023-08-06T15:22:32;18.10;99.90
8332;DHT22;4203;48.144;14.118;2023-08-06T15:25:00;17.90;99.90
8332;DHT22;4203;48.144;14.118;2023-08-06T15:27:28;17.60;99.90
8332;DHT22;4203;48.144;14.118;2023-08-06T15:29:56;17.10;99.90
8332;DHT22;4203;48.144;14.118;2023-08-06T15:32:25;16.90;99.90
8332;DHT22;4203;48.144;14.118;2023-08-06T15:34:53;16.80;99.90
8332;DHT22;4203;48.144;14.118;2023-08-06T15:37:20;16.80;99.90
8332;DHT22;4203;48.144;14.118;2023-08-06T15:39:47;16.70;99.90
8332;DHT22;4203;48.144;14.118;2023-08-06T15:42:14;16.70;99.90
8332;DHT22;4203;48.144;14.118;2023-08-06T15:44:42;16.80;99.90
8332;DHT22;4203;48.144;14.118;2023-08-06T15:47:09;17.00;99.90
8332;DHT22;4203;48.144;14.118;2023-08-06T15:49:38;17.20;99.90
8332;DHT22;4203;48.144;14.118;2023-08-06T15:52:06;17.30;99.90